Time;durP1;ratioP1;P1;durP2;ratioP2;P2;SDS_P1;SDS_P2;PMS_P1;PMS_P2;Temp;Humidity;BMP_temperature;BMP_pressure;BME280_temperature;BME280_humidity;BME280_pressure;Samples;Min_cycle;Max_cycle;Signal;HPM_P1;HPM_P2
2022/10/19 00:07:42;;;;;;;15.00;9.70;;;;;15.70;99839.00;;;;16474061;28;20200;-48
2022/10/19 00:15:45;;;;;;;12.83;10.43;;;;;16.30;99828.00;;;;16475997;28;20220;-47
2022/10/19 00:23:49;;;;;;;20.73;11.90;;;;;16.00;99823.00;;;;16456928;28;20898;-48
2022/10/19 00:31:51;;;;;;;13.90;9.90;;;;;15.70;99834.00;;;;16465571;28;20247;-48
2022/10/19 00:39:55;;;;;;;19.50;11.23;;;;;15.70;99837.00;;;;16470887;28;20592;-48
2022/10/19 00:47:57;;;;;;;16.83;11.23;;;;;15.50;99832.00;;;;16461923;28;20223;-48
2022/10/19 00:56:05;;;;;;;20.63;11.10;;;;;15.80;99847.00;;;;16474645;28;20825;-48
2022/10/19 01:04:07;;;;;;;13.23;11.10;;;;;15.90;99838.00;;;;16477658;28;20712;-47
2022/10/19 01:12:25;;;;;;;14.13;10.90;;;;;16.10;99834.00;;;;16481434;28;20220;-48
2022/10/19 01:20:54;;;;;;;21.90;11.83;;;;;15.90;99837.00;;;;16477835;28;20266;-47
2022/10/19 01:29:05;;;;;;;23.37;11.50;;;;;15.80;99826.00;;;;16490806;28;20240;-48
2022/10/19 01:37:13;;;;;;;13.50;11.80;;;;;16.10;99809.00;;;;16481653;28;20696;-48
2022/10/19 01:45:17;;;;;;;16.40;10.60;;;;;16.40;99805.00;;;;16470957;28;20232;-47
2022/10/19 01:53:22;;;;;;;14.70;10.13;;;;;16.60;99793.00;;;;16474800;28;20822;-48
2022/10/19 02:01:25;;;;;;;15.87;11.13;;;;;16.80;99790.00;;;;16484211;28;20720;-48
2022/10/19 02:09:29;;;;;;;15.40;12.13;;;;;17.50;99781.00;;;;16483381;28;20233;-48
2022/10/19 02:17:35;;;;;;;16.47;13.00;;;;;17.90;99774.00;;;;16480389;28;20204;-48
2022/10/19 02:25:39;;;;;;;15.90;12.33;;;;;17.90;99776.00;;;;16468305;28;20236;-49
2022/10/19 02:33:42;;;;;;;21.13;14.30;;;;;18.50;99755.00;;;;16481698;28;20740;-48
2022/10/19 02:41:51;;;;;;;20.00;15.40;;;;;18.20;99756.00;;;;16565603;23;20856;-47
2022/10/19 02:49:54;;;;;;;19.50;14.20;;;;;17.80;99750.00;;;;16613492;28;20216;-48
2022/10/19 02:57:58;;;;;;;22.47;16.90;;;;;17.90;99745.00;;;;16582022;28;20231;-48
2022/10/19 03:06:00;;;;;;;19.43;16.40;;;;;17.70;99740.00;;;;16590709;28;20231;-48
2022/10/19 03:14:04;;;;;;;24.73;19.00;;;;;17.30;99744.00;;;;16583527;28;20246;-47
2022/10/19 03:22:06;;;;;;;31.10;19.20;;;;;17.50;99738.00;;;;16580752;28;20266;-48
2022/10/19 03:30:11;;;;;;;25.17;19.50;;;;;17.20;99731.00;;;;16583624;28;20227;-47
2022/10/19 03:38:13;;;;;;;33.87;21.93;;;;;17.30;99732.00;;;;16580167;28;20723;-47
2022/10/19 03:46:18;;;;;;;28.80;20.00;;;;;17.60;99727.00;;;;16580171;28;20234;-47
2022/10/19 03:54:20;;;;;;;22.67;18.27;;;;;17.70;99719.00;;;;16579568;28;20297;-48
2022/10/19 04:02:24;;;;;;;23.40;19.20;;;;;17.50;99720.00;;;;16579767;28;20635;-48
2022/10/19 04:10:26;;;;;;;23.47;18.80;;;;;17.40;99720.00;;;;16576673;28;20226;-48
2022/10/19 04:18:30;;;;;;;24.37;17.87;;;;;17.40;99720.00;;;;16577120;28;20285;-47
2022/10/19 04:26:33;;;;;;;34.03;20.07;;;;;17.20;99716.00;;;;16577544;28;20215;-47
2022/10/19 04:34:37;;;;;;;24.13;20.10;;;;;17.30;99726.00;;;;16580545;28;20626;-47
2022/10/19 04:42:39;;;;;;;27.90;19.20;;;;;17.30;99725.00;;;;16581617;28;20226;-48
2022/10/19 04:50:43;;;;;;;23.17;18.13;;;;;17.50;99721.00;;;;16577865;28;20860;-47
2022/10/19 04:58:56;;;;;;;25.10;18.60;;;;;18.00;99722.00;;;;16575667;28;20235;-47
2022/10/19 05:07:00;;;;;;;25.87;19.77;;;;;17.80;99715.00;;;;16588968;28;20210;-48
2022/10/19 05:15:02;;;;;;;21.17;17.43;;;;;17.80;99722.00;;;;16576224;28;20230;-47
2022/10/19 05:23:06;;;;;;;23.63;20.40;;;;;17.90;99728.00;;;;16576856;28;20232;-48
2022/10/19 05:31:11;;;;;;;28.23;20.80;;;;;17.80;99723.00;;;;16584215;28;20358;-47
2022/10/19 05:39:17;;;;;;;22.40;19.97;;;;;18.00;99711.00;;;;16572005;28;20741;-48
2022/10/19 05:47:19;;;;;;;22.10;19.03;;;;;17.80;99724.00;;;;16578377;28;20226;-47
2022/10/19 05:55:23;;;;;;;21.97;17.90;;;;;18.00;99717.00;;;;16582886;28;20701;-48
2022/10/19 06:03:26;;;;;;;20.87;18.63;;;;;18.20;99722.00;;;;16582761;28;20823;-47
2022/10/19 06:11:32;;;;;;;23.63;18.13;;;;;18.00;99726.00;;;;16574033;28;20219;-48
2022/10/19 06:19:35;;;;;;;18.70;16.17;;;;;18.20;99720.00;;;;16582214;28;20223;-48
2022/10/19 06:27:38;;;;;;;19.90;17.80;;;;;17.90;99721.00;;;;16581179;28;20234;-48
2022/10/19 06:35:41;;;;;;;18.77;16.77;;;;;17.70;99728.00;;;;16579708;28;20295;-47
2022/10/19 06:43:50;;;;;;;18.57;16.50;;;;;17.90;99738.00;;;;16579904;28;20258;-47
2022/10/19 06:51:52;;;;;;;18.23;16.00;;;;;18.00;99743.00;;;;16577067;28;20223;-47
2022/10/19 06:59:56;;;;;;;19.90;16.20;;;;;18.10;99740.00;;;;16583554;28;20222;-48
2022/10/19 07:07:58;;;;;;;21.73;15.60;;;;;17.90;99744.00;;;;16583608;28;20227;-47
2022/10/19 07:16:05;;;;;;;18.30;15.67;;;;;18.10;99745.00;;;;16583399;28;20207;-48
2022/10/19 07:24:08;;;;;;;17.70;14.97;;;;;18.40;99734.00;;;;16579008;28;20238;-48
2022/10/19 07:32:11;;;;;;;15.50;13.90;;;;;18.20;99739.00;;;;16577738;28;20218;-48
2022/10/19 07:40:14;;;;;;;16.20;14.70;;;;;18.60;99741.00;;;;16575299;28;20441;-47
2022/10/19 07:48:18;;;;;;;15.40;13.30;;;;;18.40;99735.00;;;;16578933;28;20229;-48
2022/10/19 07:56:22;;;;;;;16.23;14.57;;;;;18.40;99733.00;;;;16574889;28;20203;-47
2022/10/19 08:04:25;;;;;;;15.80;14.20;;;;;18.60;99736.00;;;;16572707;28;20236;-48
2022/10/19 08:12:28;;;;;;;21.77;14.07;;;;;19.00;99730.00;;;;16578386;28;20224;-48
2022/10/19 08:20:33;;;;;;;15.43;13.40;;;;;19.50;99743.00;;;;16574006;28;20223;-47
2022/10/19 08:28:35;;;;;;;18.43;13.50;;;;;19.00;99732.00;;;;16574509;28;20730;-47
2022/10/19 08:36:39;;;;;;;15.30;13.90;;;;;18.80;99732.00;;;;16574089;28;20210;-47
2022/10/19 08:45:08;;;;;;;19.97;15.30;;;;;18.80;99726.00;;;;16572915;28;20285;-47
2022/10/19 08:53:15;;;;;;;15.47;13.47;;;;;19.30;99744.00;;;;16572823;28;20348;-47
2022/10/19 09:01:26;;;;;;;14.50;13.10;;;;;19.40;99741.00;;;;16574162;28;20229;-47
2022/10/19 09:09:31;;;;;;;13.43;11.80;;;;;19.60;99728.00;;;;16574954;28;20234;-47
2022/10/19 09:17:34;;;;;;;14.17;10.87;;;;;19.60;99722.00;;;;16576283;28;20213;-47
2022/10/19 09:25:39;;;;;;;17.33;12.57;;;;;19.70;99719.00;;;;16585284;28;20231;-49
2022/10/19 09:33:42;;;;;;;12.43;10.10;;;;;19.70;99717.00;;;;16584811;28;20290;-48
2022/10/19 09:41:49;;;;;;;9.30;8.37;;;;;19.70;99717.00;;;;16583290;28;20638;-48
2022/10/19 09:49:53;;;;;;;7.73;7.00;;;;;20.10;99715.00;;;;16589696;28;20261;-47
2022/10/19 09:58:03;;;;;;;5.17;4.73;;;;;20.20;99714.00;;;;16586316;28;20234;-48
2022/10/19 10:06:08;;;;;;;7.03;5.70;;;;;20.00;99712.00;;;;16588485;28;20741;-48
2022/10/19 10:14:18;;;;;;;6.13;5.57;;;;;20.20;99705.00;;;;16584284;28;20216;-48
2022/10/19 10:22:26;;;;;;;5.43;4.93;;;;;20.10;99699.00;;;;16586905;28;20234;-47
2022/10/19 10:30:35;;;;;;;4.90;4.50;;;;;19.90;99697.00;;;;16584865;28;20697;-48
2022/10/19 10:38:40;;;;;;;6.93;5.07;;;;;20.10;99688.00;;;;16579933;28;20788;-48
2022/10/19 10:46:50;;;;;;;5.77;4.77;;;;;20.30;99681.00;;;;16581341;28;20723;-47
2022/10/19 10:54:59;;;;;;;8.03;5.33;;;;;20.70;99674.00;;;;16583572;28;20223;-48
2022/10/19 11:03:08;;;;;;;5.00;4.60;;;;;21.00;99660.00;;;;16566214;28;20601;-48
2022/10/19 11:11:15;;;;;;;5.50;4.67;;;;;21.00;99650.00;;;;16565546;28;20258;-48
2022/10/19 11:19:22;;;;;;;6.03;5.53;;;;;21.00;99650.00;;;;16576817;28;20797;-48
2022/10/19 11:27:34;;;;;;;6.20;5.70;;;;;20.60;99635.00;;;;16569123;28;20711;-50
2022/10/19 11:35:46;;;;;;;6.07;5.47;;;;;20.70;99626.00;;;;16565080;28;20231;-49
2022/10/19 11:44:14;;;;;;;5.30;4.90;;;;;20.70;99613.00;;;;16576891;28;20319;-48
2022/10/19 11:52:21;;;;;;;5.47;4.97;;;;;21.20;99586.00;;;;16574150;28;20217;-49
2022/10/19 12:00:24;;;;;;;8.43;6.30;;;;;21.00;99576.00;;;;16570305;28;20223;-49
2022/10/19 12:08:37;;;;;;;6.23;5.63;;;;;21.10;99571.00;;;;16574336;28;20731;-48
2022/10/19 12:16:42;;;;;;;6.53;5.93;;;;;20.70;99573.00;;;;16575461;28;20203;-48
2022/10/19 12:24:46;;;;;;;7.03;6.43;;;;;21.30;99569.00;;;;16567697;28;20255;-48
2022/10/19 12:32:59;;;;;;;9.30;6.00;;;;;21.10;99553.00;;;;16573240;28;20219;-48
2022/10/19 12:41:07;;;;;;;5.90;5.40;;;;;21.00;99561.00;;;;16569588;28;20588;-49
2022/10/19 12:49:35;;;;;;;6.40;5.80;;;;;21.10;99543.00;;;;16574034;28;20738;-49
2022/10/19 12:57:39;;;;;;;6.80;5.90;;;;;21.20;99531.00;;;;16571510;28;20705;-49
2022/10/19 13:05:42;;;;;;;7.00;6.40;;;;;21.30;99521.00;;;;16584202;28;20716;-48
2022/10/19 13:13:59;;;;;;;5.77;5.13;;;;;20.80;99515.00;;;;16581188;28;20219;-48
2022/10/19 13:22:27;;;;;;;7.47;6.00;;;;;22.30;99517.00;;;;16577020;28;20842;-49
2022/10/19 13:31:00;;;;;;;7.77;5.40;;;;;23.50;99491.00;;;;16582925;28;20225;-47
2022/10/19 13:39:12;;;;;;;4.20;3.80;;;;;23.90;99474.00;;;;16581461;28;20309;-49
2022/10/19 13:47:28;;;;;;;4.47;3.70;;;;;23.80;99474.00;;;;16585476;28;20688;-49
2022/10/19 13:55:46;;;;;;;4.23;3.80;;;;;23.30;99468.00;;;;16585085;28;20196;-49
2022/10/19 14:04:11;;;;;;;3.70;3.40;;;;;23.20;99453.00;;;;16585023;28;20265;-48
2022/10/19 14:12:20;;;;;;;4.50;4.07;;;;;22.60;99449.00;;;;16578696;28;20249;-49
2022/10/19 14:20:29;;;;;;;3.87;3.57;;;;;22.50;99439.00;;;;16585972;28;20293;-48
2022/10/19 14:28:33;;;;;;;4.60;3.60;;;;;22.20;99437.00;;;;16567286;28;20577;-49
2022/10/19 14:36:39;;;;;;;4.17;3.87;;;;;22.10;99424.00;;;;16581735;28;20290;-49
2022/10/19 14:44:43;;;;;;;3.77;3.50;;;;;22.20;99425.00;;;;16578531;28;20223;-49
2022/10/19 14:52:47;;;;;;;5.40;3.77;;;;;22.00;99424.00;;;;16573244;28;20227;-48
2022/10/19 15:00:51;;;;;;;4.50;3.47;;;;;22.40;99411.00;;;;16574351;28;20583;-48
2022/10/19 15:08:56;;;;;;;5.03;4.67;;;;;22.80;99412.00;;;;16575266;28;20279;-49
2022/10/19 15:17:00;;;;;;;5.07;4.67;;;;;22.90;99402.00;;;;16573217;28;20204;-49
2022/10/19 15:25:27;;;;;;;5.00;4.60;;;;;23.20;99396.00;;;;16571803;28;20692;-48
2022/10/19 15:33:30;;;;;;;7.13;4.53;;;;;23.30;99403.00;;;;16575716;28;20769;-49
2022/10/19 15:41:35;;;;;;;5.60;5.17;;;;;22.80;99393.00;;;;16567991;28;20542;-49
2022/10/19 15:49:54;;;;;;;5.73;5.23;;;;;22.10;99392.00;;;;16570704;28;20757;-49
2022/10/19 15:58:00;;;;;;;9.13;8.33;;;;;21.30;99389.00;;;;16574429;28;20227;-48
2022/10/19 16:06:03;;;;;;;5.53;4.60;;;;;20.90;99396.00;;;;16572210;28;20313;-48
2022/10/19 16:14:06;;;;;;;5.50;5.00;;;;;20.70;99381.00;;;;16555030;28;20931;-48
2022/10/19 16:22:09;;;;;;;7.60;5.07;;;;;19.50;99375.00;;;;16569114;28;20222;-48
2022/10/19 16:30:14;;;;;;;8.03;7.20;;;;;18.30;99394.00;;;;16593327;28;20226;-48
2022/10/19 16:38:16;;;;;;;10.93;6.93;;;;;17.50;99393.00;;;;16595600;28;20231;-48
2022/10/19 16:46:23;;;;;;;9.93;8.27;;;;;17.10;99394.00;;;;16600046;28;20229;-48
2022/10/19 16:54:28;;;;;;;9.17;8.43;;;;;17.10;99403.00;;;;16597964;28;20307;-49
2022/10/19 17:02:32;;;;;;;9.23;8.00;;;;;16.80;99402.00;;;;16582789;28;20216;-48
2022/10/19 17:10:34;;;;;;;11.60;8.47;;;;;16.50;99402.00;;;;16596323;28;20362;-48
2022/10/19 17:18:39;;;;;;;12.03;9.47;;;;;16.40;99416.00;;;;16592189;28;20720;-46
2022/10/19 17:26:43;;;;;;;15.60;11.03;;;;;16.40;99398.00;;;;16577042;28;20594;-47
2022/10/19 17:34:47;;;;;;;12.10;9.10;;;;;16.30;99405.00;;;;16579534;28;20291;-48
2022/10/19 17:42:50;;;;;;;13.43;9.03;;;;;16.10;99403.00;;;;16572237;28;20262;-48
2022/10/19 17:51:02;;;;;;;10.80;8.90;;;;;15.80;99411.00;;;;16569128;28;20610;-48
2022/10/19 17:59:06;;;;;;;20.23;9.40;;;;;15.70;99413.00;;;;16575497;28;20230;-48
2022/10/19 18:07:10;;;;;;;11.13;9.77;;;;;15.50;99410.00;;;;16577966;28;20299;-48
2022/10/19 18:15:13;;;;;;;14.03;10.63;;;;;15.80;99416.00;;;;16575054;28;20763;-48
2022/10/19 18:23:17;;;;;;;11.10;10.10;;;;;15.80;99416.00;;;;16570185;28;20312;-48
2022/10/19 18:31:21;;;;;;;10.93;9.93;;;;;15.60;99412.00;;;;16575948;28;20713;-48
2022/10/19 18:39:25;;;;;;;15.77;11.53;;;;;15.40;99398.00;;;;16575465;28;20253;-48
2022/10/19 18:47:29;;;;;;;11.47;10.10;;;;;15.20;99396.00;;;;16570635;28;20223;-49
2022/10/19 18:55:33;;;;;;;16.77;11.33;;;;;15.00;99387.00;;;;16569453;28;20199;-48
2022/10/19 19:03:36;;;;;;;15.33;13.43;;;;;14.60;99385.00;;;;16572808;28;20694;-48
2022/10/19 19:11:40;;;;;;;17.47;12.80;;;;;15.00;99371.00;;;;16574075;28;20221;-48
2022/10/19 19:19:43;;;;;;;16.10;12.10;;;;;14.90;99382.00;;;;16576901;28;20219;-48
2022/10/19 19:27:47;;;;;;;15.23;11.03;;;;;14.80;99371.00;;;;16576990;28;20225;-48
2022/10/19 19:35:51;;;;;;;12.57;11.37;;;;;14.80;99370.00;;;;16575539;28;20202;-48
2022/10/19 19:43:56;;;;;;;12.43;11.13;;;;;15.10;99362.00;;;;16574017;28;20223;-48
2022/10/19 19:51:58;;;;;;;16.03;11.70;;;;;14.80;99364.00;;;;16574099;28;20223;-48
2022/10/19 20:00:02;;;;;;;16.70;10.73;;;;;15.20;99342.00;;;;16571278;28;20223;-48
2022/10/19 20:08:13;;;;;;;11.10;9.87;;;;;14.80;99345.00;;;;16570219;28;20231;-48
2022/10/19 20:16:19;;;;;;;16.70;12.23;;;;;15.00;99336.00;;;;16574373;28;20800;-48
2022/10/19 20:24:21;;;;;;;11.77;9.90;;;;;14.90;99337.00;;;;16568302;28;20726;-48
2022/10/19 20:32:25;;;;;;;12.50;11.07;;;;;14.70;99325.00;;;;16564713;28;20224;-49
2022/10/19 20:40:28;;;;;;;14.97;11.47;;;;;14.80;99322.00;;;;16572395;28;20219;-48
2022/10/19 20:57:54;;;;;;;13.90;12.50;;;;;14.70;99304.00;;;;16577577;23;20314;-80
2022/10/19 21:05:57;;;;;;;13.93;12.43;;;;;14.30;99317.00;;;;16562337;23;20235;-80
2022/10/19 21:14:04;;;;;;;13.83;12.43;;;;;14.20;99318.00;;;;16481512;28;20208;-80
2022/10/19 21:22:07;;;;;;;16.87;12.23;;;;;14.30;99316.00;;;;16455320;28;20216;-80
2022/10/19 21:30:12;;;;;;;15.70;12.80;;;;;14.30;99299.00;;;;16456783;28;20235;-80
2022/10/19 21:38:14;;;;;;;13.60;12.37;;;;;14.00;99315.00;;;;16452352;28;20225;-80
2022/10/19 21:46:20;;;;;;;14.67;13.10;;;;;14.00;99319.00;;;;16447933;28;20610;-81
2022/10/19 21:54:24;;;;;;;12.70;11.40;;;;;13.70;99306.00;;;;16430107;28;20646;-79
2022/10/19 22:02:27;;;;;;;14.07;12.27;;;;;14.00;99293.00;;;;16449507;28;20877;-80
2022/10/19 22:10:30;;;;;;;14.60;12.70;;;;;13.70;99278.00;;;;16465882;28;20244;-80
2022/10/19 22:18:34;;;;;;;17.60;12.93;;;;;13.50;99279.00;;;;16571531;23;20230;-47
2022/10/19 22:26:38;;;;;;;16.53;12.80;;;;;13.80;99278.00;;;;16644870;28;20254;-47
2022/10/19 22:34:42;;;;;;;22.97;14.40;;;;;13.60;99278.00;;;;16641057;28;20736;-47
2022/10/19 22:42:44;;;;;;;13.90;11.87;;;;;13.40;99275.00;;;;16642867;28;20719;-48
2022/10/19 22:50:48;;;;;;;12.57;10.70;;;;;14.00;99273.00;;;;16644941;28;20221;-48
2022/10/19 22:58:50;;;;;;;13.03;11.43;;;;;13.60;99260.00;;;;16638421;28;20223;-48
2022/10/19 23:06:54;;;;;;;12.73;11.43;;;;;13.40;99251.00;;;;16633611;28;20222;-48
2022/10/19 23:14:57;;;;;;;18.03;11.70;;;;;13.30;99233.00;;;;16642185;28;20242;-46
2022/10/19 23:23:00;;;;;;;13.03;11.60;;;;;13.40;99226.00;;;;16634379;28;20651;-47
2022/10/19 23:31:05;;;;;;;14.00;11.93;;;;;13.50;99212.00;;;;16639674;28;20209;-47
2022/10/19 23:39:08;;;;;;;12.43;11.23;;;;;13.30;99196.00;;;;16635273;28;20717;-47
2022/10/19 23:47:11;;;;;;;15.63;11.60;;;;;13.30;99199.00;;;;16644038;28;20246;-47
2022/10/19 23:55:15;;;;;;;20.73;12.40;;;;;13.10;99204.00;;;;16639085;28;20222;-46
